Main page
METAR-TAF:

METAR-TAF

Airports :

Westerly State Airport

Westerly, Rhode Island, United States

latitude: 41-20-59N, longitude: 071-47-56W, elevation: 79 ft

Current weather observation

The report was made 38 minutes ago, at 16:53 UTC
Wind 17 mph from the West/Southwest with gusts up to 35 mph
Temperature 46°F
Humidity 61%
Pressure 29.36 in. Hg
Visibility: 10 miles
Broken clouds at a height of 4000 ft
Overcast at a height of 4800 ft

METAR: KWST 271653Z AUTO 24015G30KT 10SM BKN040 OVC048 08/01 A2936 RMK AO2 PK WND 25030/1604 SLP942 T00830006

Time: 12:31 (17:31 UTC)


TAF: missing

Weather observations and forecasts of more than 4000 airports (METAR and TAF reports).

The available stations are represented by yellow and red dots on the map.

Hover mouse over dot to see the name of the station.

Then click to see weather observations and forecasts.

To change the map : click on the green buttons with a black cross to zoom in, on the green button with a dash to zoom out, or on the green arrows for adjacent maps.


METAR-TAF: